Terminal Aerodrome Forecast
Issued by NWS

Home | Current Version | Previous Version | Text Only | Print | Product List | Glossary On
Versions: 1 2 3 4 5 6 7 8 9 10 11 12 13 14 15
656
FTUS46 KSEW 182329
TAFOLM
TAF
KOLM 182329Z 1900/1924 19018G28KT P6SM -RA SCT015 OVC035
      TEMPO 1900/1901 2SM -RA BR OVC015
     FM190100 20013G20KT 2SM RA BR SCT008 OVC015
     FM190900 20010KT 4SM -RA BR BKN015 OVC025
     FM191400 20010KT P6SM VCSH BKN025 OVC030
     FM191800 20010KT P6SM VCSH SCT025 BKN040=

USA.gov is the U.S. government's official web portal to all federal, state and local government web resources and services.